Time;durP1;ratioP1;P1;durP2;ratioP2;P2;SDS_P1;SDS_P2;PMS_P1;PMS_P2;Temp;Humidity;BMP_temperature;BMP_pressure;BME280_temperature;BME280_humidity;BME280_pressure;Samples;Min_cycle;Max_cycle;Signal;HPM_P1;HPM_P2
2023/08/28 00:01:58;;;;;;;0.10;0.10;;;14.40;85.20;;;;;;5030055;28;20835;-71
2023/08/28 00:04:24;;;;;;;0.00;0.00;;;14.40;85.20;;;;;;5017407;28;20125;-71
2023/08/28 00:06:51;;;;;;;0.00;0.00;;;14.40;85.10;;;;;;5019304;28;20056;-71
2023/08/28 00:09:16;;;;;;;0.22;0.22;;;14.30;85.10;;;;;;5011455;28;20042;-72
2023/08/28 00:11:42;;;;;;;0.00;0.00;;;14.30;85.30;;;;;;5011172;28;20108;-71
2023/08/28 00:14:08;;;;;;;0.00;0.00;;;14.30;85.30;;;;;;5023734;28;20130;-71
2023/08/28 00:16:34;;;;;;;0.00;0.00;;;14.30;85.20;;;;;;5028130;28;20051;-71
2023/08/28 00:18:59;;;;;;;0.00;0.00;;;14.30;85.30;;;;;;5016921;28;20060;-71
2023/08/28 00:21:25;;;;;;;0.00;0.00;;;14.30;85.40;;;;;;5021944;28;20532;-71
2023/08/28 00:23:50;;;;;;;0.00;0.00;;;14.30;85.40;;;;;;5013924;28;20049;-71
2023/08/28 00:26:16;;;;;;;0.00;0.00;;;14.30;85.50;;;;;;5023777;28;20065;-71
2023/08/28 00:28:42;;;;;;;0.00;0.00;;;14.30;85.90;;;;;;5011301;28;20855;-71
2023/08/28 00:31:07;;;;;;;0.00;0.00;;;14.30;85.90;;;;;;5023858;28;20044;-71
2023/08/28 00:33:33;;;;;;;0.00;0.00;;;14.30;86.00;;;;;;5029982;28;20041;-71
2023/08/28 00:35:59;;;;;;;0.00;0.00;;;14.30;86.10;;;;;;5029789;28;20686;-71
2023/08/28 00:38:24;;;;;;;0.00;0.00;;;14.30;86.30;;;;;;5029589;28;20405;-71
2023/08/28 00:40:50;;;;;;;0.00;0.00;;;14.30;86.50;;;;;;5023402;28;20125;-71
2023/08/28 00:43:15;;;;;;;0.00;0.00;;;14.30;86.80;;;;;;5010086;28;20046;-72
2023/08/28 00:45:42;;;;;;;0.00;0.00;;;14.30;86.70;;;;;;5020672;28;20048;-71
2023/08/28 00:48:14;;;;;;;0.00;0.00;;;14.30;86.60;;;;;;5029096;28;20044;-71
2023/08/28 00:50:41;;;;;;;0.00;0.00;;;14.30;86.80;;;;;;5029901;28;20080;-71
2023/08/28 00:53:06;;;;;;;0.00;0.00;;;14.30;86.90;;;;;;5029601;28;20509;-71
2023/08/28 00:55:34;;;;;;;0.00;0.00;;;14.20;86.80;;;;;;5029220;28;20128;-70
2023/08/28 00:58:02;;;;;;;0.00;0.00;;;14.20;86.70;;;;;;5021771;28;20052;-70
2023/08/28 01:00:28;;;;;;;0.00;0.00;;;14.20;86.80;;;;;;5009641;28;20088;-70
2023/08/28 01:02:53;;;;;;;0.00;0.00;;;14.30;86.70;;;;;;5007832;28;20045;-70
2023/08/28 01:05:25;;;;;;;0.00;0.00;;;14.30;86.60;;;;;;5011180;28;20048;-70
2023/08/28 01:07:58;;;;;;;0.00;0.00;;;14.30;86.50;;;;;;5028754;28;20049;-70
2023/08/28 01:10:37;;;;;;;0.00;0.00;;;14.40;86.40;;;;;;5027878;28;20501;-70
2023/08/28 01:13:20;;;;;;;0.00;0.00;;;14.30;86.20;;;;;;5016220;28;20042;-70
2023/08/28 01:15:46;;;;;;;0.00;0.00;;;14.30;86.40;;;;;;5020469;28;20045;-70
2023/08/28 01:18:12;;;;;;;0.00;0.00;;;14.30;86.30;;;;;;5012751;28;20064;-70
2023/08/28 01:20:39;;;;;;;0.00;0.00;;;14.30;86.20;;;;;;5009704;28;20057;-70
2023/08/28 01:23:12;;;;;;;0.00;0.00;;;14.30;86.10;;;;;;5024848;28;20049;-70
2023/08/28 01:25:37;;;;;;;0.00;0.00;;;14.30;86.10;;;;;;5010487;28;20045;-70
2023/08/28 01:28:03;;;;;;;0.00;0.00;;;14.30;86.00;;;;;;5021889;28;20460;-71
2023/08/28 01:30:29;;;;;;;0.00;0.00;;;14.30;85.90;;;;;;5011708;28;20115;-70
2023/08/28 01:32:54;;;;;;;0.00;0.00;;;14.30;85.90;;;;;;5029248;28;20091;-70
2023/08/28 01:35:24;;;;;;;0.00;0.00;;;14.30;85.90;;;;;;5018433;28;20046;-70
2023/08/28 01:38:19;;;;;;;0.00;0.00;;;14.30;86.00;;;;;;5012751;28;20053;-70
2023/08/28 01:40:48;;;;;;;0.00;0.00;;;14.30;86.10;;;;;;4993907;28;20087;-70
2023/08/28 01:43:18;;;;;;;0.00;0.00;;;14.30;86.10;;;;;;5025104;28;20509;-70
2023/08/28 01:45:44;;;;;;;0.00;0.00;;;14.30;86.20;;;;;;5027886;28;20076;-70
2023/08/28 01:48:09;;;;;;;0.00;0.00;;;14.20;86.10;;;;;;5014283;28;20035;-70
2023/08/28 01:50:35;;;;;;;0.00;0.00;;;14.20;86.20;;;;;;5011494;28;20044;-70
2023/08/28 01:53:00;;;;;;;0.00;0.00;;;14.20;86.40;;;;;;5026836;28;20049;-70
2023/08/28 01:55:44;;;;;;;0.00;0.00;;;14.20;86.50;;;;;;5011262;28;20120;-70
2023/08/28 01:58:10;;;;;;;0.00;0.00;;;14.10;86.70;;;;;;5018320;28;20064;-70
2023/08/28 02:00:35;;;;;;;0.00;0.00;;;14.00;87.10;;;;;;5023101;28;20482;-70
2023/08/28 02:03:01;;;;;;;0.10;0.10;;;14.00;87.40;;;;;;5015717;28;20044;-70
2023/08/28 02:05:27;;;;;;;0.00;0.00;;;14.10;87.60;;;;;;5015866;28;20046;-70
2023/08/28 02:07:52;;;;;;;0.00;0.00;;;14.10;87.40;;;;;;5018721;28;20057;-71
2023/08/28 02:10:18;;;;;;;0.00;0.00;;;14.00;87.30;;;;;;5007837;28;20673;-70
2023/08/28 02:12:44;;;;;;;0.00;0.00;;;14.10;87.20;;;;;;5019434;28;20107;-70
2023/08/28 02:15:10;;;;;;;0.00;0.00;;;14.10;87.20;;;;;;5018204;28;20038;-70
2023/08/28 02:17:35;;;;;;;0.00;0.00;;;14.10;87.10;;;;;;5021553;28;20038;-70
2023/08/28 02:20:01;;;;;;;0.00;0.00;;;14.10;87.00;;;;;;5010997;28;20586;-70
2023/08/28 02:22:26;;;;;;;0.10;0.10;;;14.10;87.10;;;;;;5027471;28;20728;-70
2023/08/28 02:24:52;;;;;;;0.00;0.00;;;14.10;87.00;;;;;;5027968;28;20060;-70
2023/08/28 02:27:17;;;;;;;0.00;0.00;;;14.10;87.10;;;;;;5026124;28;20121;-70
2023/08/28 02:29:43;;;;;;;0.00;0.00;;;14.10;87.00;;;;;;5024504;28;20537;-70
2023/08/28 02:32:08;;;;;;;0.00;0.00;;;14.00;86.90;;;;;;5021919;28;20044;-70
2023/08/28 02:34:34;;;;;;;0.00;0.00;;;14.00;86.60;;;;;;5028447;28;20067;-70
2023/08/28 02:37:00;;;;;;;0.00;0.00;;;14.00;86.60;;;;;;5028343;28;20041;-70
2023/08/28 02:39:25;;;;;;;0.00;0.00;;;14.00;86.60;;;;;;5014056;28;20055;-70
2023/08/28 02:41:51;;;;;;;0.00;0.00;;;14.00;86.50;;;;;;5031706;28;20100;-70
2023/08/28 02:44:16;;;;;;;0.00;0.00;;;14.00;86.40;;;;;;5031951;28;20060;-70
2023/08/28 02:46:42;;;;;;;0.00;0.00;;;14.00;86.40;;;;;;5014140;28;20156;-70
2023/08/28 02:49:08;;;;;;;0.00;0.00;;;14.00;86.40;;;;;;5031587;28;20041;-70
2023/08/28 02:51:34;;;;;;;0.00;0.00;;;14.00;86.30;;;;;;5031570;28;20045;-70
2023/08/28 02:53:59;;;;;;;0.00;0.00;;;14.00;86.20;;;;;;5032074;28;20049;-70
2023/08/28 02:56:27;;;;;;;0.00;0.00;;;14.00;86.10;;;;;;5013672;28;20100;-70
2023/08/28 02:58:53;;;;;;;0.00;0.00;;;13.90;86.10;;;;;;5031544;28;20649;-70
2023/08/28 03:01:20;;;;;;;0.00;0.00;;;14.00;86.00;;;;;;5031473;28;20068;-70
2023/08/28 03:03:47;;;;;;;0.00;0.00;;;13.90;86.00;;;;;;5010052;28;20052;-70
2023/08/28 03:06:13;;;;;;;0.00;0.00;;;13.90;85.90;;;;;;5022802;28;20504;-70
2023/08/28 03:08:38;;;;;;;0.00;0.00;;;14.00;85.90;;;;;;5010110;28;20041;-70
2023/08/28 03:11:04;;;;;;;0.00;0.00;;;14.00;85.90;;;;;;5020178;28;20042;-70
2023/08/28 03:13:30;;;;;;;0.00;0.00;;;14.00;85.80;;;;;;5011797;28;20502;-70
2023/08/28 03:15:55;;;;;;;0.00;0.00;;;14.00;85.90;;;;;;5013080;28;20048;-70
2023/08/28 03:18:21;;;;;;;0.00;0.00;;;14.00;86.00;;;;;;5016319;28;20061;-70
2023/08/28 03:20:47;;;;;;;0.00;0.00;;;14.00;85.90;;;;;;5017452;28;20117;-70
2023/08/28 03:23:12;;;;;;;0.00;0.00;;;14.00;85.90;;;;;;5030824;28;20140;-70
2023/08/28 03:25:38;;;;;;;0.00;0.00;;;14.00;85.90;;;;;;5030966;28;20118;-70
2023/08/28 03:28:07;;;;;;;0.00;0.00;;;14.00;85.90;;;;;;5024901;28;20041;-70
2023/08/28 03:30:33;;;;;;;0.00;0.00;;;14.00;86.00;;;;;;5030347;28;20042;-70
2023/08/28 03:32:59;;;;;;;0.00;0.00;;;14.00;86.10;;;;;;5030995;28;20068;-70
2023/08/28 03:35:25;;;;;;;0.00;0.00;;;14.00;86.00;;;;;;5029643;28;20046;-70
2023/08/28 03:37:50;;;;;;;0.00;0.00;;;13.90;86.10;;;;;;5024777;28;20049;-70
2023/08/28 03:40:16;;;;;;;0.00;0.00;;;13.90;86.10;;;;;;5024121;28;20053;-70
2023/08/28 03:42:42;;;;;;;0.00;0.00;;;14.00;86.10;;;;;;5031031;28;20213;-70
2023/08/28 03:45:08;;;;;;;0.00;0.00;;;14.00;86.10;;;;;;5030385;28;20045;-70
2023/08/28 03:47:33;;;;;;;0.00;0.00;;;14.00;86.10;;;;;;5030325;28;20184;-70
2023/08/28 03:49:59;;;;;;;0.00;0.00;;;14.00;86.00;;;;;;5029791;28;20037;-70
2023/08/28 03:52:25;;;;;;;0.00;0.00;;;14.00;86.00;;;;;;5030582;28;20056;-70
2023/08/28 03:54:51;;;;;;;0.00;0.00;;;14.00;85.90;;;;;;5025446;28;20049;-70
2023/08/28 03:57:17;;;;;;;0.00;0.00;;;14.10;85.90;;;;;;5027402;28;20049;-70
2023/08/28 03:59:43;;;;;;;0.00;0.00;;;14.10;85.80;;;;;;5022219;28;20053;-70
2023/08/28 04:02:09;;;;;;;0.00;0.00;;;14.10;85.80;;;;;;5027124;28;20045;-70
2023/08/28 04:04:34;;;;;;;0.00;0.00;;;14.00;85.80;;;;;;5013937;28;20045;-70
2023/08/28 04:07:03;;;;;;;0.05;0.05;;;14.10;85.80;;;;;;5030336;28;20140;-70
2023/08/28 04:09:29;;;;;;;0.00;0.00;;;14.10;85.80;;;;;;5028037;28;20051;-70
2023/08/28 04:11:56;;;;;;;0.00;0.00;;;14.00;85.80;;;;;;5010718;28;20053;-70
2023/08/28 04:14:22;;;;;;;0.00;0.00;;;14.10;85.70;;;;;;5011801;28;20062;-70
2023/08/28 04:16:47;;;;;;;0.03;0.03;;;14.00;85.80;;;;;;5009658;28;20052;-70
2023/08/28 04:19:13;;;;;;;0.00;0.00;;;14.10;85.80;;;;;;5010871;28;20188;-70
2023/08/28 04:21:38;;;;;;;0.00;0.00;;;14.10;85.90;;;;;;5020999;28;20549;-70
2023/08/28 04:24:04;;;;;;;0.00;0.00;;;14.10;86.00;;;;;;5009029;28;20101;-70
2023/08/28 04:26:30;;;;;;;0.00;0.00;;;14.10;86.10;;;;;;5026129;28;20048;-70
2023/08/28 04:28:56;;;;;;;0.00;0.00;;;14.10;86.50;;;;;;5012399;28;20505;-70
2023/08/28 04:31:22;;;;;;;0.00;0.00;;;14.00;86.50;;;;;;5026340;28;20056;-70
2023/08/28 04:33:47;;;;;;;0.00;0.00;;;14.00;87.10;;;;;;5020438;28;20046;-69
2023/08/28 04:36:13;;;;;;;0.00;0.00;;;14.00;87.50;;;;;;5029312;28;20092;-70
2023/08/28 04:38:38;;;;;;;0.00;0.00;;;14.00;87.50;;;;;;5029343;28;20041;-70
2023/08/28 04:41:04;;;;;;;0.00;0.00;;;14.00;87.80;;;;;;5029250;28;20041;-69
2023/08/28 04:43:29;;;;;;;0.00;0.00;;;14.00;87.80;;;;;;5029683;28;20100;-70
2023/08/28 04:45:55;;;;;;;0.00;0.00;;;14.00;87.70;;;;;;5010262;28;20587;-69
2023/08/28 04:48:21;;;;;;;0.00;0.00;;;14.00;87.70;;;;;;5009782;28;20103;-69
2023/08/28 04:50:46;;;;;;;0.00;0.00;;;14.10;87.90;;;;;;5014406;28;20052;-70
2023/08/28 04:53:12;;;;;;;0.00;0.00;;;14.10;87.90;;;;;;5029583;28;20060;-69
2023/08/28 04:55:39;;;;;;;0.00;0.00;;;14.10;88.10;;;;;;5029273;28;20045;-69
2023/08/28 04:58:05;;;;;;;0.00;0.00;;;14.10;88.40;;;;;;5029172;28;20056;-69
2023/08/28 05:00:31;;;;;;;0.00;0.00;;;14.10;88.70;;;;;;5010354;28;20053;-69
2023/08/28 05:02:56;;;;;;;0.00;0.00;;;14.10;88.80;;;;;;5015049;28;20410;-70
2023/08/28 05:05:22;;;;;;;0.00;0.00;;;14.10;88.90;;;;;;5009370;28;20099;-69
2023/08/28 05:07:48;;;;;;;0.00;0.00;;;14.10;88.90;;;;;;5014350;28;20049;-70
2023/08/28 05:10:13;;;;;;;0.00;0.00;;;14.10;88.80;;;;;;5010950;28;20081;-69
2023/08/28 05:12:39;;;;;;;0.00;0.00;;;14.10;88.80;;;;;;5027908;28;20041;-70
2023/08/28 05:15:05;;;;;;;0.52;0.52;;;14.10;88.80;;;;;;5027726;28;20506;-69
2023/08/28 05:17:30;;;;;;;0.00;0.00;;;14.20;89.10;;;;;;5029165;28;20041;-69
2023/08/28 05:19:56;;;;;;;0.00;0.00;;;14.10;89.10;;;;;;5016038;28;20104;-70
2023/08/28 05:22:21;;;;;;;0.00;0.00;;;14.20;89.30;;;;;;5012620;28;20050;-69
2023/08/28 05:24:47;;;;;;;0.00;0.00;;;14.10;89.20;;;;;;5009709;28;20042;-69
2023/08/28 05:27:13;;;;;;;0.00;0.00;;;14.20;89.10;;;;;;5024370;28;20106;-70
2023/08/28 05:29:38;;;;;;;0.00;0.00;;;14.30;89.00;;;;;;5023632;28;20060;-69
2023/08/28 05:32:04;;;;;;;0.00;0.00;;;14.30;88.80;;;;;;5028189;28;20080;-70
2023/08/28 05:34:32;;;;;;;0.00;0.00;;;14.30;88.70;;;;;;5028962;28;20100;-70
2023/08/28 05:36:57;;;;;;;0.00;0.00;;;14.40;88.60;;;;;;5026265;28;20053;-70
2023/08/28 05:39:23;;;;;;;0.00;0.00;;;14.50;88.60;;;;;;5020138;28;20045;-70
2023/08/28 05:41:48;;;;;;;0.00;0.00;;;14.50;88.50;;;;;;5012716;28;20081;-70
2023/08/28 05:44:14;;;;;;;0.00;0.00;;;14.50;88.40;;;;;;5010643;28;20046;-69
2023/08/28 05:46:40;;;;;;;0.00;0.00;;;14.50;88.30;;;;;;5028371;28;20030;-70
2023/08/28 05:49:07;;;;;;;0.00;0.00;;;14.50;88.30;;;;;;5028353;28;20041;-69
2023/08/28 05:51:32;;;;;;;0.00;0.00;;;14.60;88.30;;;;;;5026208;28;20049;-70
2023/08/28 05:53:58;;;;;;;0.10;0.10;;;14.60;88.30;;;;;;5020776;28;20391;-70
2023/08/28 05:56:23;;;;;;;0.00;0.00;;;14.60;88.60;;;;;;5008178;28;20048;-70
2023/08/28 05:58:49;;;;;;;0.00;0.00;;;14.60;88.80;;;;;;5011665;28;20053;-70
2023/08/28 06:01:15;;;;;;;0.00;0.00;;;14.60;88.70;;;;;;5016107;28;20524;-70
2023/08/28 06:03:40;;;;;;;0.00;0.00;;;14.70;88.60;;;;;;5010597;28;20034;-70
2023/08/28 06:06:06;;;;;;;0.00;0.00;;;14.70;88.40;;;;;;5009458;28;20140;-70
2023/08/28 06:08:31;;;;;;;0.00;0.00;;;14.70;88.20;;;;;;5014452;28;20354;-70
2023/08/28 06:10:57;;;;;;;0.00;0.00;;;14.80;88.10;;;;;;5012605;28;20332;-69
2023/08/28 06:13:22;;;;;;;0.00;0.00;;;14.80;88.20;;;;;;5016073;28;20383;-70
2023/08/28 06:15:48;;;;;;;0.00;0.00;;;14.90;88.10;;;;;;4980134;28;20050;-70
2023/08/28 06:18:14;;;;;;;0.00;0.00;;;14.90;88.30;;;;;;5017725;28;20080;-69
2023/08/28 06:20:39;;;;;;;0.00;0.00;;;15.00;88.30;;;;;;5018855;28;20525;-69
2023/08/28 06:23:05;;;;;;;0.00;0.00;;;15.10;88.20;;;;;;5013483;28;20828;-69
2023/08/28 06:25:30;;;;;;;0.00;0.00;;;15.10;88.60;;;;;;4994108;28;20112;-69
2023/08/28 06:27:57;;;;;;;0.00;0.00;;;15.10;88.60;;;;;;5018345;28;20050;-69
2023/08/28 06:30:22;;;;;;;0.00;0.00;;;15.10;88.60;;;;;;4996786;28;20046;-67
2023/08/28 06:32:48;;;;;;;0.00;0.00;;;15.20;88.80;;;;;;4995946;28;20041;-70
2023/08/28 06:35:16;;;;;;;0.00;0.00;;;15.30;89.00;;;;;;5016897;28;20054;-70
2023/08/28 06:37:42;;;;;;;0.00;0.00;;;15.30;88.80;;;;;;5018005;28;20563;-70
2023/08/28 06:40:08;;;;;;;0.00;0.00;;;15.40;89.00;;;;;;4994951;28;20050;-73
2023/08/28 06:42:36;;;;;;;0.00;0.00;;;15.60;89.30;;;;;;5003746;28;20049;-73
2023/08/28 06:45:02;;;;;;;0.10;0.10;;;15.70;89.00;;;;;;4997194;28;20107;-73
2023/08/28 06:47:27;;;;;;;0.00;0.00;;;15.80;88.60;;;;;;5011605;28;20041;-73
2023/08/28 06:49:53;;;;;;;0.00;0.00;;;15.80;88.50;;;;;;5011123;28;20042;-73
2023/08/28 06:52:19;;;;;;;0.03;0.03;;;15.80;88.30;;;;;;5011343;28;20141;-74
2023/08/28 06:54:45;;;;;;;0.00;0.00;;;15.90;88.30;;;;;;4993823;28;20041;-74
2023/08/28 06:57:10;;;;;;;0.00;0.00;;;15.90;88.20;;;;;;5013883;28;20072;-74
2023/08/28 06:59:36;;;;;;;0.00;0.00;;;16.00;88.20;;;;;;4994623;28;20107;-73
2023/08/28 07:02:01;;;;;;;0.00;0.00;;;16.00;88.00;;;;;;5021333;28;20053;-72
2023/08/28 07:04:27;;;;;;;0.00;0.00;;;16.10;88.00;;;;;;5018732;28;20034;-72
2023/08/28 07:06:53;;;;;;;0.00;0.00;;;16.10;87.90;;;;;;4997818;28;20384;-70
2023/08/28 07:09:18;;;;;;;0.00;0.00;;;16.20;88.00;;;;;;5016243;28;20053;-73
2023/08/28 07:11:44;;;;;;;0.00;0.00;;;16.30;88.10;;;;;;5002261;28;20076;-73
2023/08/28 07:14:09;;;;;;;0.00;0.00;;;16.30;87.70;;;;;;5002034;28;20123;-72
2023/08/28 07:16:35;;;;;;;0.00;0.00;;;16.40;87.10;;;;;;5017903;28;20065;-72
2023/08/28 07:19:01;;;;;;;0.00;0.00;;;16.40;87.00;;;;;;5020049;28;20046;-73
2023/08/28 07:21:26;;;;;;;0.00;0.00;;;16.50;86.60;;;;;;5015828;28;20053;-72
2023/08/28 07:23:52;;;;;;;0.00;0.00;;;16.50;85.30;;;;;;5012997;28;20057;-73
2023/08/28 07:26:20;;;;;;;0.00;0.00;;;16.60;85.60;;;;;;4991395;28;20543;-72
2023/08/28 07:28:48;;;;;;;0.00;0.00;;;16.60;84.50;;;;;;5029556;28;20037;-72
2023/08/28 07:31:15;;;;;;;0.00;0.00;;;16.60;84.30;;;;;;5027819;28;20095;-71
2023/08/28 07:33:40;;;;;;;0.00;0.00;;;16.60;83.10;;;;;;5029187;28;20207;-72
2023/08/28 07:36:06;;;;;;;0.00;0.00;;;16.60;81.50;;;;;;5027848;28;20527;-72
2023/08/28 07:38:32;;;;;;;0.00;0.00;;;16.70;81.40;;;;;;5015211;28;20049;-72
2023/08/28 07:40:58;;;;;;;0.00;0.00;;;16.80;81.60;;;;;;5019445;28;20520;-72
2023/08/28 07:43:23;;;;;;;0.00;0.00;;;16.80;80.00;;;;;;5024293;28;20045;-72
2023/08/28 07:45:49;;;;;;;0.00;0.00;;;16.90;80.90;;;;;;5024159;28;20045;-74
2023/08/28 07:48:15;;;;;;;0.00;0.00;;;16.90;79.40;;;;;;5028133;28;20052;-71
2023/08/28 07:50:41;;;;;;;0.00;0.00;;;17.00;80.40;;;;;;4993630;28;20038;-72
2023/08/28 07:53:06;;;;;;;0.00;0.00;;;17.00;79.60;;;;;;5025583;28;20045;-72
2023/08/28 07:55:32;;;;;;;0.00;0.00;;;17.10;80.00;;;;;;5012953;28;20504;-71
2023/08/28 07:57:58;;;;;;;0.00;0.00;;;17.10;79.80;;;;;;5025856;28;20042;-72
2023/08/28 08:00:24;;;;;;;0.00;0.00;;;17.10;79.80;;;;;;5009286;28;20417;-72
2023/08/28 08:02:53;;;;;;;0.00;0.00;;;17.20;79.90;;;;;;5005784;28;20050;-70
2023/08/28 08:05:19;;;;;;;0.10;0.10;;;17.20;79.90;;;;;;5012445;28;20150;-74
2023/08/28 08:07:45;;;;;;;0.00;0.00;;;17.30;79.70;;;;;;5029660;28;20369;-72
2023/08/28 08:10:12;;;;;;;0.00;0.00;;;17.40;78.80;;;;;;4996150;28;20094;-72
2023/08/28 08:12:38;;;;;;;0.00;0.00;;;17.50;79.50;;;;;;4996497;28;20053;-72
2023/08/28 08:15:06;;;;;;;0.00;0.00;;;17.50;77.90;;;;;;5029022;28;20163;-72
2023/08/28 08:17:33;;;;;;;0.00;0.00;;;17.60;77.60;;;;;;5012536;28;20207;-72
2023/08/28 08:19:58;;;;;;;0.00;0.00;;;17.60;76.90;;;;;;5029503;28;20065;-72
2023/08/28 08:22:24;;;;;;;0.00;0.00;;;17.60;76.60;;;;;;5009621;28;20065;-72
2023/08/28 08:24:50;;;;;;;0.00;0.00;;;17.60;76.60;;;;;;4976700;28;20045;-72
2023/08/28 08:27:16;;;;;;;0.00;0.00;;;17.70;76.70;;;;;;5009368;28;20038;-72
2023/08/28 08:29:41;;;;;;;0.10;0.10;;;17.80;77.20;;;;;;4992795;28;20093;-72
2023/08/28 08:32:07;;;;;;;0.00;0.00;;;17.90;77.00;;;;;;5009511;28;20478;-72
2023/08/28 08:34:32;;;;;;;0.00;0.00;;;17.90;74.80;;;;;;5010183;28;20184;-72
2023/08/28 08:36:58;;;;;;;0.00;0.00;;;17.90;72.60;;;;;;4991987;28;20053;-72
2023/08/28 08:39:24;;;;;;;0.08;0.08;;;17.90;73.40;;;;;;5009827;28;20046;-72
2023/08/28 08:41:50;;;;;;;0.00;0.00;;;17.90;74.20;;;;;;5009809;28;20049;-72
2023/08/28 08:44:15;;;;;;;0.00;0.00;;;18.00;74.00;;;;;;4976196;28;20125;-72
2023/08/28 08:46:44;;;;;;;0.00;0.00;;;18.00;75.20;;;;;;5010014;28;20055;-72
2023/08/28 08:49:13;;;;;;;0.00;0.00;;;18.10;75.30;;;;;;5009759;28;20038;-73
2023/08/28 08:51:42;;;;;;;0.00;0.00;;;18.20;75.20;;;;;;5009418;28;20042;-72
2023/08/28 08:54:23;;;;;;;0.00;0.00;;;18.30;74.40;;;;;;4991835;28;20046;-73
2023/08/28 08:56:53;;;;;;;0.00;0.00;;;18.50;74.90;;;;;;5009647;28;20184;-72
2023/08/28 08:59:20;;;;;;;0.00;0.00;;;18.50;73.50;;;;;;5009801;28;20115;-72
2023/08/28 09:01:46;;;;;;;0.50;0.50;;;18.60;74.30;;;;;;5009053;28;20403;-72
2023/08/28 09:04:13;;;;;;;0.00;0.00;;;18.50;74.30;;;;;;5009083;28;20050;-72
2023/08/28 09:06:40;;;;;;;0.00;0.00;;;18.40;74.00;;;;;;5009410;28;20133;-72
2023/08/28 09:09:08;;;;;;;0.00;0.00;;;18.40;75.00;;;;;;5009389;28;20037;-72
2023/08/28 09:11:36;;;;;;;0.30;0.30;;;18.30;74.30;;;;;;4992215;28;20045;-71
2023/08/28 09:14:02;;;;;;;0.00;0.00;;;18.10;74.90;;;;;;5009341;28;20050;-72
2023/08/28 09:16:27;;;;;;;0.00;0.00;;;18.10;75.20;;;;;;5009004;28;20083;-71
2023/08/28 09:18:53;;;;;;;0.00;0.00;;;18.10;75.60;;;;;;5013304;28;20410;-71
2023/08/28 09:21:19;;;;;;;0.00;0.00;;;18.10;76.40;;;;;;5029021;28;20130;-72
2023/08/28 09:23:52;;;;;;;0.00;0.00;;;18.20;76.70;;;;;;5028992;28;20498;-71
2023/08/28 09:26:23;;;;;;;0.00;0.00;;;18.30;76.50;;;;;;5028369;28;20103;-72
2023/08/28 09:28:59;;;;;;;0.00;0.00;;;18.50;76.10;;;;;;5028892;28;20083;-71
2023/08/28 09:31:32;;;;;;;0.00;0.00;;;18.50;73.50;;;;;;5029187;28;20069;-71
2023/08/28 09:33:59;;;;;;;0.00;0.00;;;18.60;71.50;;;;;;5028978;28;20037;-70
2023/08/28 09:36:25;;;;;;;0.00;0.00;;;18.70;71.70;;;;;;5028959;28;20110;-70
2023/08/28 09:38:51;;;;;;;0.00;0.00;;;18.80;70.70;;;;;;5028092;28;20045;-70
2023/08/28 09:41:18;;;;;;;0.00;0.00;;;18.80;71.20;;;;;;5028744;28;20094;-72
2023/08/28 09:43:43;;;;;;;0.00;0.00;;;18.80;71.80;;;;;;5028783;28;20068;-71
2023/08/28 09:46:09;;;;;;;0.00;0.00;;;18.70;70.60;;;;;;5011010;28;20099;-70
2023/08/28 09:48:35;;;;;;;0.38;0.38;;;18.70;72.00;;;;;;5013579;28;20050;-69
2023/08/28 09:51:03;;;;;;;0.00;0.00;;;18.60;71.10;;;;;;5033098;28;20049;-70
2023/08/28 09:53:30;;;;;;;0.00;0.00;;;18.60;71.60;;;;;;5010392;28;20164;-69
2023/08/28 09:55:57;;;;;;;0.00;0.00;;;18.60;72.40;;;;;;5018130;28;20103;-69
2023/08/28 09:58:27;;;;;;;0.00;0.00;;;18.60;72.50;;;;;;5019856;28;20037;-69
2023/08/28 10:00:55;;;;;;;0.00;0.00;;;18.70;72.20;;;;;;5014707;28;20061;-70
2023/08/28 10:03:22;;;;;;;0.00;0.00;;;18.90;72.80;;;;;;5005495;28;20052;-69
2023/08/28 10:05:51;;;;;;;0.00;0.00;;;19.00;71.50;;;;;;5015394;28;20050;-69
2023/08/28 10:08:17;;;;;;;0.00;0.00;;;19.00;70.80;;;;;;5019390;28;20046;-69
2023/08/28 10:10:51;;;;;;;0.00;0.00;;;19.00;70.30;;;;;;5019298;28;20490;-69
2023/08/28 10:13:21;;;;;;;0.00;0.00;;;18.90;67.40;;;;;;5020619;28;20046;-69
2023/08/28 10:16:10;;;;;;;0.00;0.00;;;18.90;69.50;;;;;;5015554;28;20120;-69
2023/08/28 10:18:39;;;;;;;0.00;0.00;;;18.90;69.40;;;;;;5020027;28;20468;-69
2023/08/28 10:21:06;;;;;;;0.00;0.00;;;18.90;70.20;;;;;;5016056;28;20054;-69
2023/08/28 10:23:34;;;;;;;0.00;0.00;;;18.90;70.90;;;;;;5022753;28;20537;-69
2023/08/28 10:26:01;;;;;;;0.00;0.00;;;18.80;70.60;;;;;;5015516;28;20046;-69
2023/08/28 10:28:28;;;;;;;0.00;0.00;;;18.70;70.50;;;;;;5016175;28;20079;-70
2023/08/28 10:30:55;;;;;;;0.00;0.00;;;18.60;70.50;;;;;;5017868;28;20096;-70
2023/08/28 10:33:22;;;;;;;0.00;0.00;;;18.80;71.00;;;;;;5015559;28;20052;-69
2023/08/28 10:35:50;;;;;;;0.00;0.00;;;18.90;69.90;;;;;;5014988;28;20662;-69
2023/08/28 10:38:20;;;;;;;0.00;0.00;;;19.10;71.00;;;;;;5006319;28;20045;-69
2023/08/28 10:40:49;;;;;;;0.00;0.00;;;19.30;71.10;;;;;;5009132;28;20041;-69
2023/08/28 10:43:19;;;;;;;0.15;0.15;;;19.50;68.70;;;;;;5020757;28;20060;-69
2023/08/28 10:45:45;;;;;;;0.00;0.00;;;19.40;70.60;;;;;;5030908;28;20048;-69
2023/08/28 10:48:11;;;;;;;0.00;0.00;;;19.30;70.70;;;;;;4994288;28;20057;-69
2023/08/28 10:50:38;;;;;;;0.00;0.00;;;19.10;71.30;;;;;;5011036;28;20792;-68
2023/08/28 10:53:13;;;;;;;0.00;0.00;;;19.00;71.50;;;;;;5010951;28;20045;-69
2023/08/28 10:55:49;;;;;;;0.00;0.00;;;19.00;72.10;;;;;;5015436;28;20037;-69
2023/08/28 10:58:15;;;;;;;0.00;0.00;;;18.80;72.20;;;;;;5025719;28;20131;-70
2023/08/28 11:00:41;;;;;;;0.00;0.00;;;18.70;73.40;;;;;;5011039;28;20674;-70
2023/08/28 11:03:14;;;;;;;0.00;0.00;;;18.80;72.90;;;;;;5012418;28;20557;-69
2023/08/28 11:05:41;;;;;;;0.00;0.00;;;18.90;72.70;;;;;;5030639;28;20514;-69
2023/08/28 11:08:08;;;;;;;0.00;0.00;;;19.10;72.30;;;;;;5028429;28;20052;-70
2023/08/28 11:10:35;;;;;;;0.00;0.00;;;19.40;69.30;;;;;;5024077;28;20047;-69
2023/08/28 11:13:06;;;;;;;0.00;0.00;;;19.60;68.20;;;;;;4993963;28;20050;-69
2023/08/28 11:15:34;;;;;;;0.00;0.00;;;19.70;69.40;;;;;;5011830;28;20050;-70
2023/08/28 11:18:28;;;;;;;0.00;0.00;;;19.90;69.70;;;;;;5004803;28;20052;-70
2023/08/28 11:20:59;;;;;;;0.03;0.03;;;19.80;68.60;;;;;;5008517;28;20046;-69
2023/08/28 11:23:25;;;;;;;;;;;19.60;67.30;;;;;;5017185;28;20046;-69
2023/08/28 11:25:51;;;;;;;0.00;0.00;;;19.50;68.50;;;;;;5019171;28;20320;-69
2023/08/28 11:28:24;;;;;;;0.00;0.00;;;19.40;68.90;;;;;;5017632;28;20045;-69
2023/08/28 11:30:50;;;;;;;0.00;0.00;;;19.20;70.70;;;;;;5018757;28;20045;-69
2023/08/28 11:33:19;;;;;;;0.00;0.00;;;19.10;73.20;;;;;;5020185;28;20096;-69
2023/08/28 11:35:45;;;;;;;0.00;0.00;;;19.00;73.90;;;;;;5016784;28;20157;-69
2023/08/28 11:38:11;;;;;;;0.00;0.00;;;19.00;74.60;;;;;;5017172;28;20613;-72
2023/08/28 11:40:37;;;;;;;0.00;0.00;;;18.80;74.70;;;;;;5018020;28;20100;-71
2023/08/28 11:43:06;;;;;;;0.00;0.00;;;18.80;74.90;;;;;;5019255;28;21372;-67
2023/08/28 11:45:32;;;;;;;4.28;2.03;;;18.80;74.70;;;;;;5000170;28;20303;-68
2023/08/28 11:48:05;;;;;;;0.00;0.00;;;18.70;74.80;;;;;;4984496;28;20052;-68
2023/08/28 11:50:30;;;;;;;0.00;0.00;;;18.70;74.60;;;;;;5012279;28;20061;-69
2023/08/28 11:52:56;;;;;;;0.00;0.00;;;18.60;73.00;;;;;;5010337;28;20045;-68
2023/08/28 11:55:21;;;;;;;0.00;0.00;;;18.60;71.60;;;;;;5030205;28;20041;-69
2023/08/28 11:57:51;;;;;;;0.00;0.00;;;18.60;70.40;;;;;;5029474;28;20055;-69
2023/08/28 12:00:17;;;;;;;0.00;0.00;;;18.60;71.00;;;;;;5014017;28;20042;-69
2023/08/28 12:02:47;;;;;;;0.00;0.00;;;18.60;70.60;;;;;;4993816;28;20050;-69
2023/08/28 12:05:18;;;;;;;0.00;0.00;;;18.60;69.50;;;;;;5010708;28;20081;-69
2023/08/28 12:07:45;;;;;;;0.00;0.00;;;18.60;70.80;;;;;;5010890;28;20120;-69
2023/08/28 12:10:16;;;;;;;0.00;0.00;;;18.70;70.20;;;;;;5009917;28;20049;-69
2023/08/28 12:12:42;;;;;;;0.20;0.20;;;18.80;71.60;;;;;;5016645;28;20127;-69
2023/08/28 12:15:09;;;;;;;0.05;0.05;;;18.90;69.90;;;;;;5030358;28;20414;-69
2023/08/28 12:17:36;;;;;;;0.00;0.00;;;19.00;70.20;;;;;;5012621;28;20128;-69
2023/08/28 12:20:04;;;;;;;0.00;0.00;;;19.10;70.70;;;;;;5030035;28;20091;-69
2023/08/28 12:22:32;;;;;;;0.00;0.00;;;19.20;71.40;;;;;;5012335;28;20056;-69
2023/08/28 12:24:58;;;;;;;0.00;0.00;;;19.40;71.30;;;;;;5030297;28;20136;-69
2023/08/28 12:27:26;;;;;;;0.00;0.00;;;19.60;70.10;;;;;;5029965;28;20073;-69
2023/08/28 12:29:54;;;;;;;0.00;0.00;;;19.80;69.50;;;;;;5012684;28;20521;-69
2023/08/28 12:32:20;;;;;;;0.00;0.00;;;19.90;69.10;;;;;;5028345;28;20425;-69
2023/08/28 12:34:47;;;;;;;0.00;0.00;;;20.10;68.40;;;;;;5029958;28;20041;-69
2023/08/28 12:37:14;;;;;;;0.00;0.00;;;20.10;67.30;;;;;;5012472;28;20719;-69
2023/08/28 12:39:48;;;;;;;0.00;0.00;;;20.20;68.80;;;;;;5031389;28;20409;-69
2023/08/28 12:42:14;;;;;;;0.00;0.00;;;20.30;67.80;;;;;;5008829;28;20053;-69
2023/08/28 12:44:44;;;;;;;0.00;0.00;;;20.30;69.00;;;;;;5010081;28;20117;-69
2023/08/28 12:47:16;;;;;;;0.00;0.00;;;20.10;68.00;;;;;;5009832;28;20065;-69